Aérodrome :
LOGIN :

S'inscrire | Disclaimer

   EN    FR    IT 

 










Légende :    VFR   VFR Marginal   IFR   IFR Intensif   IFR Très Intensif
Visi : 
Plafond : 
>= 8 km
>= 3000ft
5 à 8 km
1000 à 3000 ft
1500m à 5 km
500 à 1000 ft
800 à 1500m
200 à 500 ft
< 800m
< 200 ft
Symboles :   Orages  Brouillard  Fortes neiges  Fortes précipitations  Vent > 20 kt
SIGMETs :   Divers  Orages  Givrage  Turbulence  Onde Orograph.  Cendres Volcan.







- Altitude de l'aérodrome : 279 ft
- Code IATA : TGR


DAUK - Touggourt Sidi Mahdi

DERNIER METAR :
  • 210400Z 07004KT 4000 HZ NSC 18/13 Q1000

METARs EXPIRÉS :
  • 210300Z 08011KT 4000 HZ NSC 18/13 Q1000
  • 210200Z 07011KT 4000 HZ NSC 19/12 Q1000

TAF TAF DAUK
Valide du 21 à 03h jusqu'au 21 à 12h UTC


210200Z 2103/2112 08012KT 3000 HZ NSC
PROB30 2103/2106 08022KT 1500 BLSA
BECMG 2104/2108 14018KT
PROB30
TEMPO 2105/2109 1000 BLSA
Pas de NOTAMs connus pour ce terrain.
1 SIGMET publié pour la FIR Alger (DAAA) :
 
Orages noyés dans la masse
DAAA SIGMET 1 VALID 210230/210430 DAMM
DAAA ALGER FIR EMBD TS OBS WI N3607 E00005 - N3543 E00025 - N3446 W00000 - N3451 W00104 - N3607 E00005 TOP FL300 MOV NW NC=



MET'MAP, la Météo Aéronautique d'un coup d'oeil ! - Copyright ORBIFLY Décembre 2007 - Disclaimer

ORBIFLY MET'MAP TEAM :

Programmation & Développement : Alexandra Zaïnal
Conception & Développement : Baudouin d'Aumeries
Co-Programmation & Développement : Marc-Olivier Méhu
Soutien technique & logistique : Manuel Goepfert

Contact : metmap@orbifly.com




SOURCES & CREDITS :

   NOAA